Time;durP1;ratioP1;P1;durP2;ratioP2;P2;SDS_P1;SDS_P2;PMS_P1;PMS_P2;Temp;Humidity;BMP_temperature;BMP_pressure;BME280_temperature;BME280_humidity;BME280_pressure;Samples;Min_cycle;Max_cycle;Signal;HPM_P1;HPM_P2
2023/08/09 00:00:33;;;;;;;1.38;0.80;;;;;;;21.48;54.50;101191.03;5002149;28;20033;-72
2023/08/09 00:03:02;;;;;;;2.55;1.00;;;;;;;21.47;54.65;101186.66;5001670;28;20131;-73
2023/08/09 00:05:28;;;;;;;2.40;0.90;;;;;;;21.46;54.43;101192.09;5002084;28;20923;-73
2023/08/09 00:07:53;;;;;;;1.85;0.80;;;;;;;21.46;54.53;101187.66;5004823;28;20542;-73
2023/08/09 00:10:19;;;;;;;1.77;0.80;;;;;;;21.46;54.88;101190.31;5006819;28;20112;-74
2023/08/09 00:12:45;;;;;;;2.50;0.90;;;;;;;21.46;54.54;101187.66;5005091;28;20076;-75
2023/08/09 00:15:10;;;;;;;2.30;0.93;;;;;;;21.46;54.55;101184.13;5005038;28;20091;-76
2023/08/09 00:17:36;;;;;;;3.45;0.80;;;;;;;21.46;54.62;101187.66;5006211;28;20037;-74
2023/08/09 00:20:02;;;;;;;3.17;0.90;;;;;;;21.44;54.62;101189.59;5005413;28;20088;-83
2023/08/09 00:22:27;;;;;;;1.73;0.80;;;;;;;21.43;54.56;101181.75;5005680;28;20069;-73
2023/08/09 00:24:53;;;;;;;2.10;1.00;;;;;;;21.44;54.60;101194.06;5005733;28;20462;-73
2023/08/09 00:27:18;;;;;;;2.45;0.88;;;;;;;21.44;54.58;101192.22;5005451;28;20470;-72
2023/08/09 00:29:44;;;;;;;1.95;0.80;;;;;;;21.44;54.54;101191.41;5004431;28;20042;-81
2023/08/09 00:32:09;;;;;;;1.15;0.68;;;;;;;21.43;54.48;101187.94;5006403;28;20124;-72
2023/08/09 00:34:34;;;;;;;2.35;0.88;;;;;;;21.42;54.36;101188.88;5003973;28;20045;-82
2023/08/09 00:37:00;;;;;;;2.25;0.90;;;;;;;21.42;54.46;101190.72;5006047;28;20064;-72
2023/08/09 00:39:25;;;;;;;2.72;0.70;;;;;;;21.41;54.51;101189.03;5005633;28;21016;-78
2023/08/09 00:41:50;;;;;;;2.80;0.80;;;;;;;21.41;54.50;101189.84;5018542;28;20030;-71
2023/08/09 00:44:16;;;;;;;3.13;0.82;;;;;;;21.41;54.74;101189.03;5005647;28;20091;-74
2023/08/09 00:46:42;;;;;;;3.25;1.00;;;;;;;21.40;54.64;101188.19;5005255;28;20034;-79
2023/08/09 00:49:11;;;;;;;2.22;0.90;;;;;;;21.38;54.51;101195.47;5004975;28;20030;-71
2023/08/09 00:51:36;;;;;;;1.92;0.80;;;;;;;21.38;54.48;101191.00;5005405;28;20093;-84
2023/08/09 00:54:02;;;;;;;2.85;0.82;;;;;;;21.38;54.70;101196.28;5006472;28;20033;-73
2023/08/09 00:56:28;;;;;;;1.88;0.85;;;;;;;21.38;54.68;101201.59;5005032;28;20037;-73
2023/08/09 00:58:53;;;;;;;1.83;0.93;;;;;;;21.38;54.76;101204.25;5005510;28;20430;-74
2023/08/09 01:01:18;;;;;;;2.53;1.00;;;;;;;21.37;54.74;101201.72;5005691;28;20084;-72
2023/08/09 01:03:44;;;;;;;2.15;0.90;;;;;;;21.38;54.76;101204.25;5004465;28;20057;-75
2023/08/09 01:06:34;;;;;;;2.08;0.88;;;;;;;21.34;54.74;101210.78;5005139;28;20030;-79
2023/08/09 01:09:16;;;;;;;2.25;1.00;;;;;;;21.37;54.91;101209.69;5004641;28;20108;-72
2023/08/09 01:11:48;;;;;;;2.03;0.88;;;;;;;21.34;54.55;101210.78;5005323;28;20038;-77
2023/08/09 01:14:20;;;;;;;1.55;0.90;;;;;;;21.35;54.83;101207.16;5005074;28;20030;-75
2023/08/09 01:16:46;;;;;;;2.33;1.00;;;;;;;21.34;54.59;101210.78;5004169;28;20691;-73
2023/08/09 01:19:38;;;;;;;4.30;1.00;;;;;;;21.33;54.43;101203.81;5004720;28;20034;-74
2023/08/09 01:22:15;;;;;;;1.20;0.70;;;;;;;21.33;54.58;101205.63;5005172;28;20034;-83
2023/08/09 01:24:42;;;;;;;2.08;0.88;;;;;;;21.33;54.29;101197.66;5004716;28;20088;-73
2023/08/09 01:27:08;;;;;;;1.90;0.82;;;;;;;21.33;54.60;101200.31;5005707;28;20088;-73
2023/08/09 01:29:34;;;;;;;1.92;0.90;;;;;;;21.32;54.70;101201.31;5005121;28;20033;-78
2023/08/09 01:32:00;;;;;;;1.65;0.90;;;;;;;21.32;54.74;101201.31;5005072;28;20042;-73
2023/08/09 01:34:25;;;;;;;1.92;1.00;;;;;;;21.31;54.65;101216.34;5005454;28;20041;-79
2023/08/09 01:36:51;;;;;;;2.70;1.00;;;;;;;21.30;54.64;101214.69;5004325;28;20034;-80
2023/08/09 01:39:38;;;;;;;1.70;0.85;;;;;;;21.29;54.72;101209.53;5005302;28;20135;-72
2023/08/09 01:42:05;;;;;;;2.38;1.00;;;;;;;21.31;54.31;101211.06;5020041;28;20037;-72
2023/08/09 01:44:31;;;;;;;2.47;0.80;;;;;;;21.29;54.59;101215.66;5004307;28;20498;-74
2023/08/09 01:46:57;;;;;;;4.72;0.90;;;;;;;21.29;54.57;101215.66;5004959;28;20042;-77
2023/08/09 01:49:23;;;;;;;1.90;0.80;;;;;;;21.29;54.35;101212.19;5004657;28;20156;-74
2023/08/09 01:51:48;;;;;;;3.58;1.00;;;;;;;21.29;54.37;101217.50;5002409;28;20438;-72
2023/08/09 01:54:17;;;;;;;2.50;0.98;;;;;;;21.28;54.36;101223.75;5004818;28;20041;-74
2023/08/09 01:56:43;;;;;;;1.33;0.73;;;;;;;21.29;54.38;101222.78;5003692;28;20033;-75
2023/08/09 01:59:09;;;;;;;1.77;0.90;;;;;;;21.27;54.56;101228.22;5004374;28;20037;-72
2023/08/09 02:01:35;;;;;;;1.55;0.90;;;;;;;21.27;54.57;101222.94;5004380;28;20172;-78
2023/08/09 02:04:01;;;;;;;2.13;0.88;;;;;;;21.27;54.53;101222.94;5004301;28;20050;-76
2023/08/09 02:06:27;;;;;;;2.20;0.98;;;;;;;21.27;54.57;101228.22;5002033;28;20524;-74
2023/08/09 02:08:52;;;;;;;3.33;0.90;;;;;;;21.28;54.12;101231.72;5002265;28;20153;-76
2023/08/09 02:11:17;;;;;;;1.98;1.00;;;;;;;21.27;54.24;101235.31;5004522;28;20046;-74
2023/08/09 02:13:43;;;;;;;2.70;1.10;;;;;;;21.26;54.23;101237.13;5003769;28;20110;-76
2023/08/09 02:16:09;;;;;;;3.30;1.00;;;;;;;21.25;53.97;101235.44;5003791;28;20034;-79
2023/08/09 02:18:35;;;;;;;2.15;0.90;;;;;;;21.26;54.06;101231.00;5003929;28;20033;-75
2023/08/09 02:21:02;;;;;;;1.42;0.80;;;;;;;21.26;54.01;101236.31;5003459;28;20450;-72
2023/08/09 02:23:28;;;;;;;3.50;0.90;;;;;;;21.24;54.19;101244.41;5004178;28;20037;-80
2023/08/09 02:25:55;;;;;;;2.38;1.00;;;;;;;21.25;54.25;101250.53;5003599;28;20433;-75
2023/08/09 02:28:20;;;;;;;3.67;0.90;;;;;;;21.23;53.80;101250.66;5003416;28;20107;-73
2023/08/09 02:30:46;;;;;;;2.20;1.02;;;;;;;21.24;54.00;101247.06;5004899;28;20057;-74
2023/08/09 02:33:11;;;;;;;2.45;1.10;;;;;;;21.23;54.00;101244.53;5006056;28;20144;-72
2023/08/09 02:35:51;;;;;;;2.17;1.00;;;;;;;21.20;54.10;101254.44;5004398;28;20050;-84
2023/08/09 02:38:16;;;;;;;2.03;1.00;;;;;;;21.23;53.87;101260.44;5001906;28;20402;-82
2023/08/09 02:40:41;;;;;;;1.55;0.93;;;;;;;21.23;54.00;101258.63;5003432;28;20046;-72
2023/08/09 02:43:06;;;;;;;3.28;1.00;;;;;;;21.22;54.00;101256.09;5004290;28;20037;-83
2023/08/09 02:45:32;;;;;;;3.65;1.00;;;;;;;21.22;53.80;101258.75;5003446;28;20033;-72
2023/08/09 02:47:57;;;;;;;2.97;1.00;;;;;;;21.22;53.92;101258.75;5003294;28;20033;-79
2023/08/09 02:50:23;;;;;;;1.95;0.90;;;;;;;21.22;53.69;101264.06;5003622;28;20282;-73
2023/08/09 02:52:50;;;;;;;2.92;1.10;;;;;;;21.21;53.82;101265.88;5003256;28;20025;-72
2023/08/09 02:55:17;;;;;;;1.95;1.00;;;;;;;21.21;53.76;101265.88;5002756;28;20038;-72
2023/08/09 02:57:42;;;;;;;2.92;1.05;;;;;;;21.19;53.61;101273.13;5003163;28;20479;-72
2023/08/09 03:00:08;;;;;;;2.70;1.00;;;;;;;21.20;53.86;101277.44;5003554;28;20041;-82
2023/08/09 03:02:34;;;;;;;1.63;0.90;;;;;;;21.19;53.63;101286.38;5002834;28;20050;-73
2023/08/09 03:05:00;;;;;;;1.80;0.88;;;;;;;21.18;53.92;101274.91;5003378;28;20064;-73
2023/08/09 03:07:25;;;;;;;1.77;0.98;;;;;;;21.18;53.52;101274.09;5003443;28;20036;-73
2023/08/09 03:09:51;;;;;;;2.45;0.90;;;;;;;21.18;53.61;101276.75;5002055;28;20479;-81
2023/08/09 03:12:16;;;;;;;1.85;0.93;;;;;;;21.18;53.54;101295.28;5003133;28;20037;-80
2023/08/09 03:14:42;;;;;;;2.13;1.05;;;;;;;21.18;53.42;101288.16;5002941;28;20909;-75
2023/08/09 03:17:07;;;;;;;2.08;1.00;;;;;;;21.18;53.76;101300.59;5002481;28;20038;-79
2023/08/09 03:19:32;;;;;;;2.85;1.05;;;;;;;21.16;53.40;101294.59;5001579;28;20061;-73
2023/08/09 03:21:58;;;;;;;2.17;1.00;;;;;;;21.16;53.33;101287.47;5002815;28;20254;-75
2023/08/09 03:24:24;;;;;;;3.28;0.93;;;;;;;21.17;53.70;101290.97;5002799;28;20029;-73
2023/08/09 03:26:49;;;;;;;1.98;1.10;;;;;;;21.15;53.57;101291.09;5002497;28;20061;-77
2023/08/09 03:29:14;;;;;;;1.77;0.90;;;;;;;21.16;53.36;101287.47;5001912;28;20099;-73
2023/08/09 03:31:41;;;;;;;1.55;0.80;;;;;;;21.15;53.51;101287.59;5002310;28;20237;-78
2023/08/09 03:34:06;;;;;;;1.95;1.00;;;;;;;21.14;53.19;101289.44;5002232;28;20124;-72
2023/08/09 03:36:32;;;;;;;1.75;1.10;;;;;;;21.15;53.50;101292.91;5002187;28;20513;-74
2023/08/09 03:38:57;;;;;;;1.45;0.80;;;;;;;21.14;53.45;101304.47;5002844;28;20026;-72
2023/08/09 03:41:22;;;;;;;1.80;1.00;;;;;;;21.14;53.59;101302.69;5001656;28;20034;-73
2023/08/09 03:43:48;;;;;;;2.30;1.02;;;;;;;21.15;53.54;101311.47;5001837;28;20030;-72
2023/08/09 03:46:13;;;;;;;2.35;0.98;;;;;;;21.13;53.50;101310.75;5001934;28;20494;-73
2023/08/09 03:48:39;;;;;;;1.85;0.95;;;;;;;21.14;53.32;101317.72;5002839;28;20049;-72
2023/08/09 03:51:04;;;;;;;2.70;1.00;;;;;;;21.13;53.28;101326.66;5001736;28;20034;-72
2023/08/09 03:53:29;;;;;;;1.67;0.85;;;;;;;21.13;53.48;101329.31;5002595;28;20053;-75
2023/08/09 03:55:55;;;;;;;2.00;1.08;;;;;;;21.13;53.28;101321.38;4999665;28;20037;-72
2023/08/09 03:58:20;;;;;;;2.45;0.98;;;;;;;21.12;53.27;101325.81;5000766;28;20145;-74
2023/08/09 04:00:45;;;;;;;2.30;1.00;;;;;;;21.12;53.31;101336.41;5002467;28;20057;-72
2023/08/09 04:03:12;;;;;;;1.55;0.80;;;;;;;21.11;53.45;101340.03;5015420;28;20136;-73
2023/08/09 04:05:37;;;;;;;1.50;0.85;;;;;;;21.10;53.05;101330.41;5000977;28;20034;-75
2023/08/09 04:08:03;;;;;;;1.85;0.80;;;;;;;21.11;53.29;101337.41;5002613;28;20042;-74
2023/08/09 04:10:28;;;;;;;2.03;0.90;;;;;;;21.11;53.25;101339.19;5002128;28;20452;-76
2023/08/09 04:12:53;;;;;;;3.28;1.13;;;;;;;21.11;53.07;101339.19;5000414;28;20037;-79
2023/08/09 04:15:21;;;;;;;1.42;0.90;;;;;;;21.11;52.94;101341.84;5002601;28;20040;-74
2023/08/09 04:17:48;;;;;;;2.53;0.90;;;;;;;21.11;52.89;101344.50;5001760;28;20120;-79
2023/08/09 04:20:14;;;;;;;1.67;1.00;;;;;;;21.09;53.02;101347.28;5001886;28;20041;-78
2023/08/09 04:22:39;;;;;;;2.28;1.13;;;;;;;21.08;52.71;101342.97;5002396;28;20079;-74
2023/08/09 04:25:05;;;;;;;1.92;1.00;;;;;;;21.10;53.33;101353.44;5002325;28;20037;-75
2023/08/09 04:27:32;;;;;;;1.90;0.98;;;;;;;21.10;53.03;101348.13;5001831;28;20046;-72
2023/08/09 04:30:00;;;;;;;2.83;1.00;;;;;;;21.09;53.02;101354.38;5001266;28;20692;-79
2023/08/09 04:32:26;;;;;;;2.08;1.00;;;;;;;21.09;53.15;101351.75;5001569;28;20332;-75
2023/08/09 04:34:51;;;;;;;2.03;1.02;;;;;;;21.08;53.21;101356.22;5001804;28;20387;-72
2023/08/09 04:37:17;;;;;;;1.83;0.95;;;;;;;21.08;52.98;101355.34;5002103;28;20034;-82
2023/08/09 04:39:43;;;;;;;2.03;0.98;;;;;;;21.08;52.89;101358.88;5001678;28;20100;-72
2023/08/09 04:42:08;;;;;;;1.95;1.00;;;;;;;21.07;53.18;101359.00;5002381;28;20041;-71
2023/08/09 04:44:34;;;;;;;1.50;0.88;;;;;;;21.08;52.94;101358.00;5001406;28;20798;-75
2023/08/09 04:46:59;;;;;;;2.15;1.00;;;;;;;21.06;52.97;101360.81;5001756;28;20075;-73
2023/08/09 04:49:26;;;;;;;2.13;1.00;;;;;;;21.07;52.79;101366.94;5002506;28;20034;-73
2023/08/09 04:51:51;;;;;;;1.63;0.95;;;;;;;21.07;52.83;101369.59;5001186;28;20034;-77
2023/08/09 04:54:17;;;;;;;1.90;1.00;;;;;;;21.06;53.05;101366.13;5005518;28;20038;-84
2023/08/09 04:56:42;;;;;;;1.80;0.88;;;;;;;21.06;52.83;101371.41;5004918;28;20037;-74
2023/08/09 04:59:07;;;;;;;2.00;1.00;;;;;;;21.06;52.91;101367.91;5005719;28;20526;-82
2023/08/09 05:01:33;;;;;;;1.63;0.88;;;;;;;21.05;52.91;101371.53;5005462;28;20271;-73
2023/08/09 05:03:58;;;;;;;1.58;0.93;;;;;;;21.06;53.10;101371.41;5005786;28;20108;-77
2023/08/09 05:06:23;;;;;;;1.42;0.80;;;;;;;21.06;52.78;101371.41;5005325;28;20034;-73
2023/08/09 05:08:49;;;;;;;1.45;0.82;;;;;;;21.06;52.77;101381.16;5005126;28;20033;-76
2023/08/09 05:11:14;;;;;;;2.63;1.00;;;;;;;21.05;53.26;101384.78;5005766;28;20030;-72
2023/08/09 05:13:39;;;;;;;1.95;0.95;;;;;;;21.05;53.23;101385.63;5005536;28;20029;-74
2023/08/09 05:16:04;;;;;;;2.03;1.00;;;;;;;21.05;53.37;101384.78;5005135;28;20117;-73
2023/08/09 05:18:30;;;;;;;2.35;1.02;;;;;;;21.06;53.22;101394.41;5005602;28;20034;-74
2023/08/09 05:20:56;;;;;;;2.20;0.90;;;;;;;21.05;53.29;101395.41;5004733;28;20646;-73
2023/08/09 05:23:21;;;;;;;2.05;1.08;;;;;;;21.04;53.06;101385.75;5004313;28;20034;-82
2023/08/09 05:25:46;;;;;;;1.88;1.05;;;;;;;21.04;53.45;101391.06;5004173;28;20029;-73
2023/08/09 05:28:12;;;;;;;2.45;1.10;;;;;;;21.04;53.18;101388.41;5004403;28;20059;-78
2023/08/09 05:30:37;;;;;;;2.28;1.20;;;;;;;21.05;53.33;101406.00;5003820;28;20038;-72
2023/08/09 05:33:04;;;;;;;2.10;1.15;;;;;;;21.05;53.44;101406.00;5003363;28;20065;-77
2023/08/09 05:35:29;;;;;;;3.55;1.48;;;;;;;21.03;53.61;101403.47;5004541;28;20072;-72
2023/08/09 05:37:54;;;;;;;2.40;1.20;;;;;;;21.04;53.07;101406.94;5004444;28;20471;-79
2023/08/09 05:40:20;;;;;;;2.58;1.17;;;;;;;21.04;53.43;101399.84;5004548;28;20033;-72
2023/08/09 05:42:45;;;;;;;3.00;1.50;;;;;;;21.05;53.22;101409.47;5003188;28;20061;-75
2023/08/09 05:45:10;;;;;;;3.05;1.40;;;;;;;21.04;53.77;101402.47;5003830;28;20030;-79
2023/08/09 05:47:36;;;;;;;3.45;1.50;;;;;;;21.02;53.63;101393.84;5003977;28;20030;-70
2023/08/09 05:50:01;;;;;;;3.33;1.73;;;;;;;21.04;53.59;101396.34;5002642;28;20410;-75
2023/08/09 05:52:27;;;;;;;2.85;1.33;;;;;;;21.05;53.68;101406.00;5004024;28;20034;-74
2023/08/09 05:54:53;;;;;;;4.05;1.38;;;;;;;21.06;53.67;101407.66;5002345;28;20039;-80
2023/08/09 05:57:18;;;;;;;2.60;1.30;;;;;;;21.05;53.86;101412.13;5003170;28;20029;-79
2023/08/09 05:59:43;;;;;;;2.38;1.20;;;;;;;21.05;53.99;101413.94;5003526;28;20026;-72
2023/08/09 06:02:09;;;;;;;3.30;1.40;;;;;;;21.06;54.01;101418.25;5003441;28;20140;-78
2023/08/09 06:04:34;;;;;;;3.08;1.52;;;;;;;21.06;54.27;101418.25;5001884;28;20445;-71
2023/08/09 06:07:00;;;;;;;3.10;1.50;;;;;;;21.04;54.06;101418.38;5002641;28;20495;-76
2023/08/09 06:09:25;;;;;;;2.78;1.50;;;;;;;21.06;54.24;101423.56;5003527;28;20133;-79
2023/08/09 06:11:51;;;;;;;5.70;1.50;;;;;;;21.04;54.26;101431.63;5002057;28;20069;-74
2023/08/09 06:14:16;;;;;;;3.67;1.70;;;;;;;21.04;54.05;101436.94;5002553;28;20037;-78
2023/08/09 06:16:45;;;;;;;3.95;1.60;;;;;;;21.04;54.25;101439.56;5002458;28;20038;-75
2023/08/09 06:19:11;;;;;;;2.88;1.48;;;;;;;21.05;54.39;101445.75;5002862;28;20524;-77
2023/08/09 06:21:36;;;;;;;4.40;1.83;;;;;;;21.05;54.59;101448.38;5003034;28;20029;-77
2023/08/09 06:24:02;;;;;;;3.10;1.80;;;;;;;21.04;54.70;101466.06;5003245;28;20034;-74
2023/08/09 06:26:27;;;;;;;2.88;1.52;;;;;;;21.04;54.68;101468.72;5001919;28;20033;-75
2023/08/09 06:28:52;;;;;;;3.60;1.80;;;;;;;21.03;54.80;101464.41;5002751;28;20147;-74
2023/08/09 06:31:17;;;;;;;3.63;1.80;;;;;;;21.05;54.88;101469.59;5003114;28;20101;-77
2023/08/09 06:33:43;;;;;;;5.13;1.65;;;;;;;21.04;54.81;101473.19;5001947;28;20030;-74
2023/08/09 06:36:09;;;;;;;2.97;1.63;;;;;;;21.05;54.88;101472.25;5003244;28;20556;-73
2023/08/09 06:38:35;;;;;;;3.08;1.80;;;;;;;21.04;55.00;101468.72;5002452;28;20055;-77
2023/08/09 06:41:00;;;;;;;4.20;2.00;;;;;;;21.04;54.93;101468.72;4999864;28;20478;-78
2023/08/09 06:43:29;;;;;;;3.88;1.48;;;;;;;21.05;55.46;101470.41;4999425;28;20034;-72
2023/08/09 06:45:57;;;;;;;4.45;1.70;;;;;;;21.02;55.43;101473.31;4999788;28;20116;-76
2023/08/09 06:48:23;;;;;;;3.70;1.70;;;;;;;21.05;55.38;101474.88;5000341;28;20037;-73
2023/08/09 06:50:48;;;;;;;3.40;1.38;;;;;;;21.06;55.13;101476.56;5001176;28;20513;-72
2023/08/09 06:53:14;;;;;;;3.45;1.80;;;;;;;21.07;54.96;101480.91;5015623;28;20030;-72
2023/08/09 06:55:39;;;;;;;4.20;2.00;;;;;;;21.08;55.19;101480.75;5001886;28;20044;-73
2023/08/09 06:58:05;;;;;;;5.13;1.73;;;;;;;21.05;55.51;101481.03;5000985;28;20140;-77
2023/08/09 07:00:30;;;;;;;4.60;1.92;;;;;;;21.04;55.84;101489.94;5000589;28;20099;-74
2023/08/09 07:02:55;;;;;;;3.30;1.67;;;;;;;21.04;55.78;101491.75;5000292;28;20042;-73
2023/08/09 07:05:21;;;;;;;5.80;1.67;;;;;;;21.09;55.22;101500.16;5001602;28;20524;-75
2023/08/09 07:07:51;;;;;;;3.45;1.98;;;;;;;21.09;55.17;101500.16;5000791;28;20120;-74
2023/08/09 07:10:17;;;;;;;5.10;2.00;;;;;;;21.11;55.44;101506.16;4998871;28;20041;-73
2023/08/09 07:12:43;;;;;;;3.95;1.80;;;;;;;21.12;55.41;101497.25;5015958;28;20034;-78
2023/08/09 07:15:09;;;;;;;3.67;1.90;;;;;;;21.12;55.49;101491.94;4999762;28;20064;-80
2023/08/09 07:17:35;;;;;;;3.40;1.80;;;;;;;21.13;55.34;101499.75;5001117;28;20030;-79
2023/08/09 07:20:02;;;;;;;3.85;1.95;;;;;;;21.13;55.61;101505.06;5000298;28;20042;-75
2023/08/09 07:22:27;;;;;;;3.17;1.88;;;;;;;21.11;55.29;101504.34;5001065;28;20034;-80
2023/08/09 07:24:53;;;;;;;5.38;2.10;;;;;;;21.13;55.66;101509.53;5016151;28;20091;-73
2023/08/09 07:27:18;;;;;;;5.35;2.05;;;;;;;21.12;55.51;101505.19;5001223;28;20438;-78
2023/08/09 07:29:43;;;;;;;4.30;2.25;;;;;;;21.13;55.75;101506.88;5001575;28;20026;-72
2023/08/09 07:32:09;;;;;;;3.60;1.90;;;;;;;21.12;55.46;101503.38;5003313;28;20049;-76
2023/08/09 07:34:34;;;;;;;3.92;2.08;;;;;;;21.13;55.88;101509.53;5016264;28;20121;-71
2023/08/09 07:37:00;;;;;;;3.63;1.80;;;;;;;21.14;55.72;101516.50;4999085;28;20929;-76
2023/08/09 07:39:25;;;;;;;5.90;2.22;;;;;;;21.12;55.80;101511.31;5000953;28;20034;-71
2023/08/09 07:41:51;;;;;;;3.88;2.20;;;;;;;21.13;55.55;101517.50;5001375;28;20030;-73
2023/08/09 07:44:16;;;;;;;4.13;2.13;;;;;;;21.14;55.70;101521.78;5000946;28;20029;-77
2023/08/09 07:46:42;;;;;;;3.67;1.90;;;;;;;21.13;55.70;101520.13;5000738;28;20068;-72
2023/08/09 07:49:07;;;;;;;3.80;2.10;;;;;;;21.13;55.82;101520.97;5000302;28;20029;-73
2023/08/09 07:51:33;;;;;;;4.65;2.22;;;;;;;21.13;55.80;101522.78;4999088;28;20036;-78
2023/08/09 07:53:59;;;;;;;3.60;1.95;;;;;;;21.13;56.04;101520.97;5001207;28;20451;-73
2023/08/09 07:56:24;;;;;;;3.78;2.00;;;;;;;21.12;55.99;101532.53;5000548;28;20036;-77
2023/08/09 07:58:50;;;;;;;4.20;1.95;;;;;;;21.12;55.85;101532.53;5000965;28;20072;-76
2023/08/09 08:01:15;;;;;;;5.07;2.00;;;;;;;21.13;55.82;101539.53;4998709;28;20040;-74
2023/08/09 08:03:41;;;;;;;11.00;2.25;;;;;;;21.12;55.96;101539.66;4998239;28;20065;-77
2023/08/09 08:06:06;;;;;;;6.95;2.60;;;;;;;21.06;56.48;101534.84;5000065;28;20029;-73
2023/08/09 08:08:31;;;;;;;4.55;2.50;;;;;;;21.05;56.94;101541.97;5000006;28;20917;-77
2023/08/09 08:10:57;;;;;;;4.07;2.10;;;;;;;21.02;56.62;101543.06;4999558;28;20041;-72
2023/08/09 08:13:23;;;;;;;4.95;2.50;;;;;;;20.99;57.07;101532.72;5001151;28;20095;-82
2023/08/09 08:15:50;;;;;;;3.65;1.90;;;;;;;20.97;56.96;101542.59;5000722;28;20037;-76
2023/08/09 08:18:15;;;;;;;5.25;2.22;;;;;;;21.00;57.10;101552.13;5014762;28;20092;-72
2023/08/09 08:20:41;;;;;;;4.25;2.28;;;;;;;21.00;57.03;101555.59;5001626;28;20049;-76
2023/08/09 08:23:06;;;;;;;4.13;2.17;;;;;;;21.02;57.31;101560.78;5000029;28;20084;-74
2023/08/09 08:25:32;;;;;;;3.75;2.28;;;;;;;20.99;57.35;101553.91;4999948;28;20041;-75
2023/08/09 08:27:57;;;;;;;4.53;2.20;;;;;;;20.97;57.33;101552.38;5002795;28;20044;-72
2023/08/09 08:30:22;;;;;;;4.50;2.40;;;;;;;20.98;57.02;101559.31;5004626;28;20038;-72
2023/08/09 08:32:49;;;;;;;5.10;2.30;;;;;;;20.97;56.94;101568.25;5001589;28;20505;-81
2023/08/09 08:35:20;;;;;;;5.35;2.40;;;;;;;20.99;57.44;101564.50;5004278;28;20037;-72
2023/08/09 08:37:46;;;;;;;4.30;2.28;;;;;;;21.01;57.18;101569.69;5003654;28;20503;-76
2023/08/09 08:40:17;;;;;;;3.92;2.30;;;;;;;21.00;57.48;101573.31;5004833;28;20127;-74
2023/08/09 08:42:59;;;;;;;4.30;2.20;;;;;;;21.01;57.18;101565.25;5004121;28;20037;-74
2023/08/09 08:45:24;;;;;;;4.80;2.30;;;;;;;21.01;56.96;101567.88;5003878;28;20080;-73
2023/08/09 08:47:50;;;;;;;5.40;2.10;;;;;;;21.04;57.24;101576.53;5002755;28;20022;-70
2023/08/09 08:50:17;;;;;;;4.30;2.20;;;;;;;21.05;57.24;101571.13;5003431;28;20128;-71
2023/08/09 08:52:45;;;;;;;4.55;2.30;;;;;;;21.07;57.27;101574.47;5003232;28;20061;-72
2023/08/09 08:55:11;;;;;;;4.03;2.20;;;;;;;21.06;57.61;101578.13;5003198;28;20033;-70
2023/08/09 08:57:38;;;;;;;3.95;2.17;;;;;;;21.05;57.68;101588.84;5003237;28;20030;-77
2023/08/09 09:00:15;;;;;;;5.35;2.30;;;;;;;21.04;57.66;101581.84;5005336;28;20117;-77
2023/08/09 09:02:44;;;;;;;3.63;2.30;;;;;;;21.02;57.86;101587.28;5002732;28;20475;-73
2023/08/09 09:05:10;;;;;;;4.78;2.45;;;;;;;20.99;57.65;101593.66;5003776;28;20060;-70
2023/08/09 09:07:36;;;;;;;4.03;2.35;;;;;;;21.01;57.45;101591.75;5002965;28;20033;-72
2023/08/09 09:10:05;;;;;;;4.35;2.30;;;;;;;21.03;57.41;101596.91;5003575;28;20395;-73
2023/08/09 09:12:34;;;;;;;4.78;2.55;;;;;;;21.04;57.43;101590.63;5002904;28;20038;-70
2023/08/09 09:15:01;;;;;;;5.65;2.20;;;;;;;21.05;57.88;101591.50;4984979;28;20188;-70
2023/08/09 09:17:26;;;;;;;5.43;2.22;;;;;;;21.05;57.61;101594.13;5003136;28;20038;-70
2023/08/09 09:19:52;;;;;;;5.50;2.35;;;;;;;21.04;57.71;101589.78;5001978;28;20033;-76
2023/08/09 09:22:27;;;;;;;4.55;2.50;;;;;;;21.02;57.78;101588.09;5002048;28;20471;-69
2023/08/09 09:24:53;;;;;;;5.45;2.17;;;;;;;21.08;57.25;101586.78;5003259;28;20037;-78
2023/08/09 09:27:27;;;;;;;4.22;2.42;;;;;;;21.10;57.85;101602.53;5003511;28;20058;-76
2023/08/09 09:29:52;;;;;;;4.03;2.40;;;;;;;21.10;57.69;101591.94;5001969;28;20084;-72
2023/08/09 09:32:18;;;;;;;5.30;3.00;;;;;;;21.09;57.69;101598.19;5002805;28;21228;-76
2023/08/09 09:34:44;;;;;;;7.65;2.50;;;;;;;21.10;57.69;101606.03;5002930;28;20267;-75
2023/08/09 09:37:10;;;;;;;4.78;2.33;;;;;;;21.10;57.87;101607.84;5000782;28;20044;-72
2023/08/09 09:39:37;;;;;;;4.10;2.63;;;;;;;21.09;57.46;101606.16;5001621;28;20045;-78
2023/08/09 09:42:03;;;;;;;4.30;2.10;;;;;;;21.11;57.30;101598.91;5001035;28;20044;-77
2023/08/09 09:44:29;;;;;;;4.13;2.33;;;;;;;21.12;57.37;101597.94;5003176;28;20036;-73
2023/08/09 09:46:54;;;;;;;3.80;2.00;;;;;;;21.15;57.32;101600.34;5002565;28;20037;-74
2023/08/09 09:49:20;;;;;;;4.97;2.00;;;;;;;21.16;57.65;101602.88;5001942;28;20486;-71
2023/08/09 09:51:46;;;;;;;4.53;2.03;;;;;;;21.19;57.08;101596.50;5016933;28;20034;-77
2023/08/09 09:54:13;;;;;;;3.88;2.00;;;;;;;21.18;56.85;101584.19;5002427;28;20426;-74
2023/08/09 09:56:38;;;;;;;4.72;2.40;;;;;;;21.26;57.18;101587.06;5001660;28;20069;-72
2023/08/09 09:59:04;;;;;;;5.28;2.17;;;;;;;21.37;56.70;101589.66;5001209;28;20041;-74
2023/08/09 10:01:32;;;;;;;4.53;1.95;;;;;;;21.45;56.22;101594.31;5017542;28;20033;-70
2023/08/09 10:04:06;;;;;;;8.40;2.00;;;;;;;21.45;56.56;101588.19;5001113;28;20046;-72
2023/08/09 10:06:39;;;;;;;4.72;2.28;;;;;;;21.49;56.58;101594.91;5000189;28;20048;-71
2023/08/09 10:09:08;;;;;;;5.47;2.07;;;;;;;21.51;56.31;101593.84;5002566;28;20096;-71
2023/08/09 10:11:34;;;;;;;5.55;2.10;;;;;;;21.53;56.33;101589.22;5002064;28;20282;-77
2023/08/09 10:14:03;;;;;;;5.45;2.38;;;;;;;21.55;56.22;101594.41;4999679;28;20790;-74
2023/08/09 10:16:31;;;;;;;7.13;2.35;;;;;;;21.43;56.67;101585.66;5002801;28;20033;-72
2023/08/09 10:19:00;;;;;;;5.57;2.05;;;;;;;21.40;56.74;101585.06;5000358;28;20443;-80
2023/08/09 10:21:26;;;;;;;7.35;2.00;;;;;;;21.37;57.18;101587.00;5003256;28;20030;-71
2023/08/09 10:23:55;;;;;;;5.50;2.22;;;;;;;21.34;57.11;101579.28;5004170;28;20041;-72
2023/08/09 10:26:28;;;;;;;5.57;2.10;;;;;;;21.32;57.19;101583.88;5000882;28;20116;-75
2023/08/09 10:29:04;;;;;;;4.07;1.90;;;;;;;21.33;57.31;101587.38;5006345;28;20071;-73
2023/08/09 10:32:00;;;;;;;5.03;2.10;;;;;;;21.35;57.54;101601.38;5003712;28;20084;-72
2023/08/09 10:34:42;;;;;;;5.07;1.70;;;;;;;21.40;57.01;101604.47;5001988;28;20041;-75
2023/08/09 10:37:11;;;;;;;3.95;1.88;;;;;;;21.51;56.77;101600.97;5001035;28;20034;-72
2023/08/09 10:39:37;;;;;;;4.95;2.20;;;;;;;21.55;56.78;101599.72;4999561;28;20052;-77
2023/08/09 10:42:08;;;;;;;3.60;2.10;;;;;;;21.55;56.68;101607.66;5001710;28;20034;-78
2023/08/09 10:44:42;;;;;;;4.18;2.05;;;;;;;21.56;56.32;101604.06;5000276;28;20053;-76
2023/08/09 10:47:25;;;;;;;;;;;;;;;21.61;56.32;101604.50;5000317;28;20045;-77
2023/08/09 10:49:56;;;;;;;6.35;2.15;;;;;;;21.59;56.13;101610.91;5001339;28;19913;-72
2023/08/09 10:52:28;;;;;;;4.35;2.00;;;;;;;21.53;56.48;101612.28;5001951;28;20069;-80
2023/08/09 10:55:15;;;;;;;8.25;2.05;;;;;;;21.50;57.39;101616.00;5001643;28;20625;-70
2023/08/09 10:57:42;;;;;;;11.10;2.30;;;;;;;21.50;57.32;101616.00;4998760;28;20034;-73
2023/08/09 11:00:12;;;;;;;4.90;2.28;;;;;;;21.47;57.25;101618.06;5001924;28;20027;-71
2023/08/09 11:03:04;;;;;;;4.97;2.20;;;;;;;21.41;57.28;101613.25;5005412;28;20136;-71
2023/08/09 11:05:29;;;;;;;5.50;2.30;;;;;;;21.44;57.24;101605.03;5002873;28;20084;-76
2023/08/09 11:07:57;;;;;;;4.80;2.17;;;;;;;21.43;57.60;101612.16;5003378;28;20061;-73
2023/08/09 11:10:34;;;;;;;5.82;1.98;;;;;;;21.42;57.26;101609.66;5003501;28;20034;-74
2023/08/09 11:13:18;;;;;;;7.22;2.25;;;;;;;21.43;57.20;101600.69;5001535;28;20482;-73
2023/08/09 11:15:47;;;;;;;4.25;1.90;;;;;;;21.44;57.32;101600.56;5000164;28;20044;-73
2023/08/09 11:18:13;;;;;;;7.45;2.05;;;;;;;21.45;57.10;101602.25;4985747;28;20041;-72
2023/08/09 11:20:39;;;;;;;4.55;2.20;;;;;;;21.46;56.87;101605.75;5001420;28;20080;-77
2023/08/09 11:23:05;;;;;;;9.30;2.20;;;;;;;21.50;57.35;101612.53;4999562;28;20482;-69